Aérodrome :
LOGIN :

S'inscrire | Disclaimer

   EN    FR    IT 

 










Légende :    VFR   VFR Marginal   IFR   IFR Intensif   IFR Très Intensif
Visi : 
Plafond : 
>= 8 km
>= 3000ft
5 à 8 km
1000 à 3000 ft
1500m à 5 km
500 à 1000 ft
800 à 1500m
200 à 500 ft
< 800m
< 200 ft
Symboles :   Orages  Brouillard  Fortes neiges  Fortes précipitations  Vent > 20 kt
SIGMETs :   Divers  Orages  Givrage  Turbulence  Onde Orograph.  Cendres Volcan.







- Altitude de l'aérodrome : 147 ft
- Code IATA : DUS


EDDL - Düsseldorf Int.

DERNIER METAR :
  • 180620Z 16006KT 9999 FEW006 BKN075 OVC100 17/16 Q1013 NOSIG

METARs EXPIRÉS :
  • 180550Z 17008KT 9999 FEW006 BKN075 OVC100 17/15 Q1013 NOSIG
  • 180520Z 17006KT 9000 -SHRA FEW013 SCT030CB BKN065 17/16 Q1013 RESHRA NOSIG
  • 180506Z 19007KT 6000 SHRA FEW016 SCT024 BKN030CB 17/16 Q1014 BECMG NSW
  • 180455Z 17006KT 5000 +SHRA FEW013 SCT020 BKN028CB 17/16 Q1013 BECMG NSW
  • 180450Z 17006KT 9000 SHRA FEW013 SCT020 BKN028CB 17/16 Q1013 BECMG NSW
  • 180427Z 19005KT 9999 -RA FEW022 SCT028 BKN065 18/16 Q1013 RERA TEMPO RA
  • 180420Z 20005KT 9999 -RA FEW028 BKN060 OVC090 18/16 Q1014 TEMPO RA
  • 180422Z 19005KT 8000 RA FEW028 BKN060 OVC090 18/16 Q1014 TEMPO NSW
  • 180350Z 18006KT 9999 -RA FEW020 SCT033 BKN060 18/16 Q1014 TEMPO RA

TAF TAF EDDL
Valide du 18 à 06h jusqu'au 19 à 12h UTC


180500Z 1806/1912 18007KT 9999 BKN030
BECMG 1806/1809 RA
TEMPO 1809/1812 24011KT +SHRA BKN012TCU
BECMG 1811/1814 24009KT NSW
Pas de NOTAMs connus pour ce terrain.



MET'MAP, la Météo Aéronautique d'un coup d'oeil ! - Copyright ORBIFLY Décembre 2007 - Disclaimer

ORBIFLY MET'MAP TEAM :

Programmation & Développement : Alexandra Zaïnal
Conception & Développement : Baudouin d'Aumeries
Co-Programmation & Développement : Marc-Olivier Méhu
Soutien technique & logistique : Manuel Goepfert

Contact : metmap@orbifly.com




SOURCES & CREDITS :

   NOAA